Time;durP1;ratioP1;P1;durP2;ratioP2;P2;SDS_P1;SDS_P2;PMS_P1;PMS_P2;Temp;Humidity;BMP_temperature;BMP_pressure;BME280_temperature;BME280_humidity;BME280_pressure;Samples;Min_cycle;Max_cycle;Signal;HPM_P1;HPM_P2
2023/02/10 00:05:11;;;;;;;34.58;17.33;;;;;;;-2.23;57.39;101808.19;30747116;28;97001;-70
2023/02/10 00:20:12;;;;;;;26.38;13.35;;;;;;;-2.41;58.64;101813.06;30744914;28;96665;-71
2023/02/10 00:35:12;;;;;;;31.98;13.13;;;;;;;-2.82;58.63;101804.72;30744067;28;96882;-71
2023/02/10 00:50:13;;;;;;;20.13;10.40;;;;;;;-2.88;59.36;101817.94;30742747;28;96643;-72
2023/02/10 01:05:13;;;;;;;15.45;9.07;;;;;;;-2.66;59.30;101814.72;30741567;28;96772;-71
2023/02/10 01:20:13;;;;;;;14.35;7.18;;;;;;;-2.70;59.59;101808.72;30739070;28;97381;-70
2023/02/10 01:35:14;;;;;;;13.68;7.50;;;;;;;-2.83;59.75;101782.16;30796749;28;97374;-74
2023/02/10 01:50:16;;;;;;;15.15;8.93;;;;;;;-3.09;59.28;101770.72;30858713;28;96735;-76
2023/02/10 02:05:33;;;;;;;15.07;7.80;;;;;;;-3.12;59.86;101780.38;30857452;28;97479;-75
2023/02/10 02:21:05;;;;;;;13.70;7.32;;;;;;;-3.36;60.20;101793.19;30856152;28;96804;-73
2023/02/10 02:36:17;;;;;;;16.83;8.27;;;;;;;-3.49;60.26;101787.44;30855062;28;96585;-67
2023/02/10 02:51:24;;;;;;;15.95;7.70;;;;;;;-3.31;60.80;101782.63;30838848;28;96664;-69
2023/02/10 03:06:24;;;;;;;13.13;6.90;;;;;;;-3.30;60.57;101777.38;30852478;28;96786;-69
2023/02/10 03:21:25;;;;;;;14.02;7.72;;;;;;;-3.36;61.04;101784.50;30850703;28;97676;-67
2023/02/10 03:36:25;;;;;;;16.90;8.05;;;;;;;-3.33;61.11;101802.69;30850274;28;96863;-69
2023/02/10 03:51:26;;;;;;;15.73;7.03;;;;;;;-3.33;60.85;101811.34;30851381;28;96981;-70
2023/02/10 04:06:26;;;;;;;13.93;7.22;;;;;;;-3.41;61.15;101818.50;30867415;28;97396;-70
2023/02/10 04:21:27;;;;;;;11.45;7.15;;;;;;;-3.38;61.19;101825.41;30865520;28;98038;-70
2023/02/10 04:36:27;;;;;;;16.40;6.95;;;;;;;-3.31;61.21;101827.78;30863962;28;97407;-70
2023/02/10 04:51:27;;;;;;;15.60;8.48;;;;;;;-3.40;62.12;101833.25;30826203;28;97242;-71
2023/02/10 05:06:28;;;;;;;13.60;7.95;;;;;;;-3.42;61.87;101829.81;30856371;28;97320;-67
2023/02/10 05:21:28;;;;;;;11.68;7.60;;;;;;;-3.58;62.38;101842.41;30854288;28;96965;-70
2023/02/10 05:36:29;;;;;;;15.68;9.80;;;;;;;-3.00;62.98;101841.75;30854661;28;98079;-70
2023/02/10 05:51:29;;;;;;;16.00;8.95;;;;;;;-2.41;61.68;101860.06;30844424;28;96747;-68
2023/02/10 06:06:29;;;;;;;17.73;8.77;;;;;;;-2.00;60.62;101874.53;30853442;28;97332;-69
2023/02/10 06:21:30;;;;;;;20.08;9.18;;;;;;;-1.65;59.67;101898.66;30853091;28;96972;-69
2023/02/10 06:36:30;;;;;;;17.27;8.35;;;;;;;-1.33;59.57;101909.84;30851224;28;97310;-70
2023/02/10 06:51:31;;;;;;;17.58;7.95;;;;;;;-1.09;59.08;101914.25;30849105;28;97486;-69
2023/02/10 07:06:31;;;;;;;23.17;9.05;;;;;;;-0.74;58.12;101920.00;30849803;28;96632;-70
2023/02/10 07:21:31;;;;;;;17.55;8.93;;;;;;;-0.62;57.56;101923.94;30846222;28;97422;-71
2023/02/10 07:36:32;;;;;;;17.75;9.23;;;;;;;-0.31;57.03;101935.91;30865224;28;96677;-72
2023/02/10 07:51:33;;;;;;;15.95;8.15;;;;;;;-0.11;56.80;101955.25;30864718;28;97104;-70
2023/02/10 08:06:33;;;;;;;14.75;7.65;;;;;;;0.14;56.50;101944.72;30864213;28;96709;-69
2023/02/10 08:21:35;;;;;;;17.60;9.85;;;;;;;0.60;56.62;101937.63;30863115;28;97503;-70
2023/02/10 08:36:35;;;;;;;22.05;8.77;;;;;;;0.84;56.64;101943.63;30860579;28;96676;-70
2023/02/10 08:51:38;;;;;;;23.85;11.68;;;;;;;1.20;57.57;101950.00;30860980;28;96829;-71
2023/02/10 09:06:42;;;;;;;27.05;12.63;;;;;;;1.38;58.01;101955.38;30859779;28;96686;-67
2023/02/10 09:21:42;;;;;;;24.73;11.27;;;;;;;1.76;58.72;101958.91;30857649;28;96974;-69
2023/02/10 09:36:43;;;;;;;18.98;10.02;;;;;;;2.81;58.90;101963.63;30857871;28;97213;-70
2023/02/10 09:51:52;;;;;;;17.50;9.02;;;;;;;5.40;54.62;101967.06;30807401;28;97160;-69
2023/02/10 10:07:11;;;;;;;17.52;10.00;;;;;;;8.09;49.10;101990.06;30734818;28;96727;-69
2023/02/10 10:22:26;;;;;;;21.52;10.45;;;;;;;6.46;52.07;101987.88;30730719;28;96797;-70
2023/02/10 10:37:27;;;;;;;27.35;11.32;;;;;;;5.68;53.51;101981.25;30730529;28;97414;-69
2023/02/10 10:52:35;;;;;;;20.58;9.90;;;;;;;4.71;53.63;101970.19;30730827;28;96672;-67
2023/02/10 11:07:36;;;;;;;34.67;10.88;;;;;;;4.13;54.81;101955.00;30742035;28;96676;-68
2023/02/10 11:22:38;;;;;;;24.20;11.00;;;;;;;4.07;55.16;101943.88;30749073;28;96785;-70
2023/02/10 11:37:39;;;;;;;33.13;13.00;;;;;;;4.42;56.21;101944.63;30758593;28;96931;-66
2023/02/10 11:52:39;;;;;;;26.25;12.35;;;;;;;4.52;55.22;101948.44;30860009;28;97316;-66
2023/02/10 12:08:09;;;;;;;19.35;10.55;;;;;;;4.35;56.08;101939.69;30846180;28;98260;-64
2023/02/10 12:23:16;;;;;;;19.88;11.30;;;;;;;4.82;55.67;101950.25;30827499;28;97273;-63
2023/02/10 12:38:53;;;;;;;22.70;10.52;;;;;;;4.52;55.68;101946.63;30864267;28;97150;-64
2023/02/10 12:54:07;;;;;;;17.50;9.75;;;;;;;4.26;56.41;101957.81;30859213;28;97250;-64
2023/02/10 13:09:31;;;;;;;26.83;10.50;;;;;;;4.44;56.79;101961.22;30844785;28;96689;-66
2023/02/10 13:24:43;;;;;;;18.50;10.33;;;;;;;4.40;57.18;101940.28;30799871;28;97197;-66
2023/02/10 13:39:54;;;;;;;18.98;8.57;;;;;;;4.89;57.23;101943.66;30788139;28;97268;-64
2023/02/10 13:54:59;;;;;;;22.83;8.55;;;;;;;5.22;55.92;101958.44;30744041;28;97305;-68
2023/02/10 14:10:21;;;;;;;18.60;8.60;;;;;;;5.25;56.01;101967.03;30769030;28;97168;-64
2023/02/10 14:25:37;;;;;;;22.00;10.38;;;;;;;5.27;55.77;101974.03;30751294;28;98238;-64
2023/02/10 14:40:37;;;;;;;21.70;8.88;;;;;;;5.08;56.23;101968.06;30728768;28;96773;-62
2023/02/10 14:55:40;;;;;;;19.05;8.85;;;;;;;4.64;56.11;101976.75;30729172;28;96691;-66
2023/02/10 15:10:46;;;;;;;18.65;9.48;;;;;;;4.10;56.98;101977.16;30729513;28;96929;-67
2023/02/10 15:25:47;;;;;;;17.88;8.20;;;;;;;3.61;57.08;101978.00;30822517;28;96945;-67
2023/02/10 15:40:55;;;;;;;16.27;8.15;;;;;;;3.15;58.27;101964.56;30836112;28;96661;-65
2023/02/10 15:55:56;;;;;;;14.48;6.45;;;;;;;2.84;59.63;101977.50;30849900;28;97373;-66
2023/02/10 16:10:56;;;;;;;11.23;5.13;;;;;;;2.61;59.50;101991.78;30856072;28;96699;-66
2023/02/10 16:25:57;;;;;;;12.95;5.47;;;;;;;2.38;60.27;102011.31;30865700;28;96972;-65
2023/02/10 16:40:58;;;;;;;9.85;4.55;;;;;;;2.18;60.77;101994.66;30820855;28;96953;-65
2023/02/10 16:55:59;;;;;;;8.20;4.90;;;;;;;2.08;60.85;102000.41;30780201;28;97220;-65
2023/02/10 17:10:59;;;;;;;13.82;5.63;;;;;;;2.10;61.59;101995.97;30849346;28;96757;-70
2023/02/10 17:25:59;;;;;;;10.20;5.50;;;;;;;2.08;61.83;102001.28;30837693;28;97523;-66
2023/02/10 17:41:00;;;;;;;10.63;5.07;;;;;;;2.06;61.91;102010.16;30845735;28;96818;-67
2023/02/10 17:56:02;;;;;;;17.38;6.70;;;;;;;2.07;62.31;102022.41;30844739;28;97215;-67
2023/02/10 18:11:02;;;;;;;14.95;5.97;;;;;;;2.10;62.16;102014.34;30844624;28;97300;-67
2023/02/10 18:26:03;;;;;;;26.45;13.13;;;;;;;1.85;62.31;102031.25;30844526;28;96884;-67
2023/02/10 18:41:03;;;;;;;31.75;18.88;;;;;;;1.38;62.16;102039.41;30842720;28;96789;-67
2023/02/10 18:56:09;;;;;;;25.80;14.85;;;;;;;1.17;62.46;102031.53;30842743;28;96839;-67
2023/02/10 19:11:12;;;;;;;35.47;18.60;;;;;;;1.18;62.33;102039.31;30839110;28;96744;-66
2023/02/10 19:26:13;;;;;;;28.73;16.33;;;;;;;1.08;62.49;102013.53;30847108;28;97367;-64
2023/02/10 19:41:16;;;;;;;32.60;15.85;;;;;;;0.99;62.55;101989.38;30862081;28;97174;-67
2023/02/10 19:56:17;;;;;;;26.88;15.40;;;;;;;0.84;63.06;101990.00;30859714;28;97444;-65
2023/02/10 20:11:17;;;;;;;25.35;13.00;;;;;;;0.64;63.80;101969.81;30873797;28;97024;-67
2023/02/10 20:26:18;;;;;;;35.13;18.10;;;;;;;0.52;64.17;101967.69;30856650;28;97447;-66
2023/02/10 20:41:20;;;;;;;33.53;14.95;;;;;;;0.25;64.89;101942.53;30853578;28;97082;-66
2023/02/10 20:56:21;;;;;;;37.33;19.60;;;;;;;0.10;65.68;101932.66;30851349;28;97297;-70
2023/02/10 21:11:25;;;;;;;30.10;16.20;;;;;;;0.02;66.17;101898.03;30817085;28;97828;-67
2023/02/10 21:26:26;;;;;;;36.37;19.17;;;;;;;-0.50;66.87;101880.75;30776766;28;97019;-67
2023/02/10 21:41:47;;;;;;;32.13;15.38;;;;;;;-0.82;67.58;101880.19;30801620;28;96984;-66
2023/02/10 21:56:48;;;;;;;34.60;15.52;;;;;;;-1.05;68.19;101863.53;30798630;28;96682;-67
2023/02/10 22:11:49;;;;;;;32.58;15.80;;;;;;;-1.28;68.44;101863.47;30752317;28;96680;-67
2023/02/10 22:26:49;;;;;;;27.25;16.08;;;;;;;-1.36;69.16;101851.50;30795102;28;96726;-66
2023/02/10 22:41:51;;;;;;;24.35;15.00;;;;;;;-1.46;69.80;101857.97;30797483;28;97063;-66
2023/02/10 22:56:51;;;;;;;28.25;13.38;;;;;;;-1.55;70.09;101837.34;30736437;28;97499;-67
2023/02/10 23:11:52;;;;;;;26.05;13.60;;;;;;;-1.65;70.43;101809.81;30754309;28;96675;-64
2023/02/10 23:26:52;;;;;;;24.92;12.60;;;;;;;-1.59;70.74;101800.00;30752021;28;97552;-67
2023/02/10 23:41:53;;;;;;;25.58;11.27;;;;;;;-1.19;71.57;101776.84;30779975;28;96769;-67
2023/02/10 23:56:53;;;;;;;29.63;15.00;;;;;;;-0.81;71.37;101739.72;30871570;28;97114;-67
